createdAt,value
2018-05-18T00:00:54.403Z,42.10
2018-05-18T00:03:22.715Z,48.80
2018-05-18T00:05:50.267Z,30.95
2018-05-18T00:08:18.569Z,65.15
2018-05-18T00:10:46.150Z,50.33
2018-05-18T00:13:13.721Z,54.13
2018-05-18T00:15:41.291Z,55.00
2018-05-18T00:18:08.845Z,41.20
2018-05-18T00:20:36.430Z,36.22
2018-05-18T00:23:03.982Z,35.53
2018-05-18T00:25:31.531Z,43.72
2018-05-18T00:27:59.104Z,38.72
2018-05-18T00:30:26.646Z,38.78
2018-05-18T00:32:54.216Z,40.75
2018-05-18T00:35:21.787Z,50.58
2018-05-18T00:37:49.342Z,39.83
2018-05-18T00:40:16.915Z,48.65
2018-05-18T00:42:44.492Z,38.00
2018-05-18T00:45:12.068Z,45.53
2018-05-18T00:47:39.621Z,42.60
2018-05-18T00:50:07.171Z,37.83
2018-05-18T00:52:34.723Z,49.15
2018-05-18T00:55:02.300Z,48.15
2018-05-18T00:57:29.864Z,43.28
2018-05-18T00:59:57.430Z,41.50
2018-05-18T01:02:24.993Z,46.28
2018-05-18T01:04:52.562Z,35.05
2018-05-18T01:07:20.135Z,55.75
2018-05-18T01:09:47.694Z,46.60
2018-05-18T01:12:15.243Z,45.88
2018-05-18T01:14:42.843Z,46.63
2018-05-18T01:17:10.390Z,44.40
2018-05-18T01:19:37.959Z,42.75
2018-05-18T01:22:05.530Z,38.75
2018-05-18T01:24:33.112Z,51.60
2018-05-18T01:27:00.788Z,43.38
2018-05-18T01:29:28.308Z,49.88
2018-05-18T01:31:55.862Z,47.60
2018-05-18T01:34:23.413Z,35.40
2018-05-18T01:36:50.964Z,39.30
2018-05-18T01:39:18.549Z,45.75
2018-05-18T01:41:46.091Z,55.35
2018-05-18T01:44:13.653Z,41.78
2018-05-18T01:46:41.227Z,52.95
2018-05-18T01:49:08.805Z,41.47
2018-05-18T01:51:36.382Z,46.97
2018-05-18T01:54:03.976Z,45.70
2018-05-18T01:56:31.614Z,49.85
2018-05-18T01:58:59.191Z,51.05
2018-05-18T02:01:26.758Z,39.38
2018-05-18T02:03:54.312Z,39.72
2018-05-18T02:06:21.862Z,51.37
2018-05-18T02:08:49.431Z,45.12
2018-05-18T02:11:16.993Z,39.63
2018-05-18T02:13:44.562Z,46.83
2018-05-18T02:16:12.105Z,39.72
2018-05-18T02:18:39.646Z,48.28
2018-05-18T02:21:07.181Z,36.28
2018-05-18T02:23:34.732Z,43.92
2018-05-18T02:26:02.306Z,43.20
2018-05-18T02:28:29.888Z,52.20
2018-05-18T02:30:57.475Z,43.28
2018-05-18T02:33:25.056Z,43.72
2018-05-18T02:35:52.634Z,41.60
2018-05-18T02:38:20.208Z,55.83
2018-05-18T02:40:47.818Z,43.85
2018-05-18T02:43:16.133Z,50.53
2018-05-18T02:45:43.703Z,51.45
2018-05-18T02:48:11.238Z,47.10
2018-05-18T02:50:38.778Z,42.75
2018-05-18T02:53:06.325Z,46.47
2018-05-18T02:55:33.902Z,52.22
2018-05-18T02:58:01.472Z,44.85
2018-05-18T03:00:29.021Z,41.97
2018-05-18T03:02:56.567Z,42.90
2018-05-18T03:05:24.102Z,49.78
2018-05-18T03:07:51.656Z,46.85
2018-05-18T03:10:19.220Z,42.38
2018-05-18T03:12:46.772Z,41.33
2018-05-18T03:15:15.068Z,53.22
2018-05-18T03:17:42.644Z,44.92
2018-05-18T03:20:10.199Z,51.20
2018-05-18T03:22:37.735Z,54.33
2018-05-18T03:25:05.307Z,56.60
2018-05-18T03:27:33.647Z,51.37
2018-05-18T03:30:01.206Z,59.47
2018-05-18T03:32:28.769Z,58.25
2018-05-18T03:34:56.334Z,67.72
2018-05-18T03:37:23.903Z,47.25
2018-05-18T03:39:51.450Z,61.70
2018-05-18T03:42:19.027Z,57.50
2018-05-18T03:44:46.587Z,60.42
2018-05-18T03:47:14.145Z,68.35
2018-05-18T03:49:41.715Z,66.05
2018-05-18T03:52:09.271Z,63.28
2018-05-18T03:54:36.824Z,60.03
2018-05-18T03:57:04.391Z,54.97
2018-05-18T03:59:31.944Z,58.95
2018-05-18T04:02:23.041Z,65.97
2018-05-18T04:05:02.363Z,64.90
2018-05-18T04:07:41.771Z,60.85
2018-05-18T04:10:10.098Z,73.05
2018-05-18T04:12:37.662Z,63.25
2018-05-18T04:15:05.236Z,52.78
2018-05-18T04:17:32.788Z,62.17
2018-05-18T04:20:00.364Z,52.90
2018-05-18T04:22:28.816Z,67.30
2018-05-18T04:24:57.151Z,59.88
2018-05-18T04:27:24.711Z,60.08
2018-05-18T04:29:52.289Z,51.55
2018-05-18T04:32:19.842Z,69.12
2018-05-18T04:34:47.402Z,72.40
2018-05-18T04:37:14.976Z,51.20
2018-05-18T04:39:42.555Z,58.95
2018-05-18T04:42:10.125Z,66.28
2018-05-18T04:44:37.693Z,75.12
2018-05-18T04:47:05.263Z,51.17
2018-05-18T04:49:32.808Z,62.55
2018-05-18T04:52:00.346Z,56.33
2018-05-18T04:54:27.901Z,59.38
2018-05-18T04:56:55.451Z,58.80
2018-05-18T04:59:22.994Z,51.10
2018-05-18T05:01:51.357Z,54.75
2018-05-18T05:04:18.913Z,66.90
2018-05-18T05:06:46.526Z,60.95
2018-05-18T05:09:14.074Z,50.30
2018-05-18T05:11:42.376Z,64.00
2018-05-18T05:14:09.948Z,43.92
2018-05-18T05:16:37.503Z,66.20
2018-05-18T05:19:05.098Z,63.53
2018-05-18T05:21:33.274Z,47.55
2018-05-18T05:24:00.817Z,70.78
2018-05-18T05:26:28.399Z,57.25
2018-05-18T05:28:55.958Z,55.75
2018-05-18T05:31:23.499Z,74.45
2018-05-18T05:33:51.098Z,53.63
2018-05-18T05:36:18.651Z,48.90
2018-05-18T05:38:46.189Z,58.47
2018-05-18T05:41:13.780Z,54.83
2018-05-18T05:43:41.351Z,59.35
2018-05-18T05:46:08.917Z,58.38
2018-05-18T05:48:36.493Z,56.13
2018-05-18T05:51:04.068Z,64.00
2018-05-18T05:53:31.617Z,62.15
2018-05-18T05:55:59.175Z,60.90
2018-05-18T05:58:26.797Z,61.58
2018-05-18T06:00:54.395Z,55.38
2018-05-18T06:03:21.940Z,61.40
2018-05-18T06:05:49.546Z,58.05
2018-05-18T06:08:17.116Z,49.75
2018-05-18T06:10:44.691Z,55.05
2018-05-18T06:13:12.274Z,47.08
2018-05-18T06:15:40.615Z,66.55
2018-05-18T06:18:08.185Z,54.33
2018-05-18T06:20:35.758Z,56.33
2018-05-18T06:23:03.326Z,49.33
2018-05-18T06:25:30.879Z,46.03
2018-05-18T06:27:58.447Z,51.90
2018-05-18T06:30:25.999Z,49.03
2018-05-18T06:32:53.545Z,45.67
2018-05-18T06:35:21.091Z,53.85
2018-05-18T06:37:48.636Z,50.97
2018-05-18T06:40:16.951Z,49.50
2018-05-18T06:42:44.523Z,46.20
2018-05-18T06:45:12.107Z,54.25
2018-05-18T06:47:39.661Z,57.20
2018-05-18T06:50:07.249Z,41.65
2018-05-18T06:52:34.881Z,49.97
2018-05-18T06:55:03.204Z,49.40
2018-05-18T06:57:30.742Z,57.33
2018-05-18T06:59:58.284Z,44.08
2018-05-18T07:02:25.833Z,47.53
2018-05-18T07:04:53.411Z,46.80
2018-05-18T07:07:20.982Z,42.55
2018-05-18T07:09:48.545Z,45.33
2018-05-18T07:12:16.124Z,51.10
2018-05-18T07:14:43.679Z,46.53
2018-05-18T07:17:11.252Z,51.97
2018-05-18T07:19:38.803Z,43.33
2018-05-18T07:22:06.376Z,54.80
2018-05-18T07:24:33.987Z,44.42
2018-05-18T07:27:02.303Z,51.78
2018-05-18T07:29:30.108Z,54.08
2018-05-18T07:31:57.863Z,39.45
2018-05-18T07:34:25.411Z,50.53
2018-05-18T07:36:52.969Z,46.80
2018-05-18T07:39:20.650Z,43.53
2018-05-18T07:41:48.226Z,46.13
2018-05-18T07:44:15.803Z,50.83
2018-05-18T07:46:43.377Z,49.58
2018-05-18T07:49:10.937Z,47.62
2018-05-18T07:51:38.477Z,42.38
2018-05-18T07:54:06.016Z,42.90
2018-05-18T07:56:33.603Z,43.92
2018-05-18T07:59:01.138Z,60.83
2018-05-18T08:01:28.711Z,42.65
2018-05-18T08:03:56.264Z,49.60
2018-05-18T08:06:23.811Z,56.25
2018-05-18T08:08:52.159Z,44.67
2018-05-18T08:11:19.715Z,40.60
2018-05-18T08:13:47.292Z,40.22
2018-05-18T08:16:14.875Z,57.97
2018-05-18T08:18:43.218Z,46.15
2018-05-18T08:21:10.790Z,44.28
2018-05-18T08:23:41.344Z,44.13
2018-05-18T08:26:09.700Z,56.35
2018-05-18T08:29:00.901Z,47.80
2018-05-18T08:31:28.445Z,46.90
2018-05-18T08:33:56.007Z,41.90
2018-05-18T08:36:23.569Z,39.17
2018-05-18T08:38:51.122Z,46.00
2018-05-18T08:41:18.676Z,43.45
2018-05-18T08:43:47.010Z,47.25
2018-05-18T08:46:14.563Z,44.67
2018-05-18T08:48:42.143Z,55.25
2018-05-18T08:51:09.695Z,52.72
2018-05-18T08:53:37.283Z,47.97
2018-05-18T08:56:04.859Z,49.45
2018-05-18T08:58:32.455Z,49.80
2018-05-18T09:01:00.018Z,39.47
2018-05-18T09:03:27.606Z,49.30
2018-05-18T09:05:55.542Z,36.03
2018-05-18T09:08:23.882Z,45.63
2018-05-18T09:10:51.448Z,45.45
2018-05-18T09:13:18.986Z,35.05
2018-05-18T09:15:46.620Z,49.80
2018-05-18T09:18:14.128Z,42.38
2018-05-18T09:20:41.698Z,48.30
2018-05-18T09:23:09.248Z,36.55
2018-05-18T09:25:36.795Z,52.45
2018-05-18T09:28:04.369Z,48.20
2018-05-18T09:30:31.912Z,46.60
2018-05-18T09:32:59.483Z,51.72
2018-05-18T09:35:27.051Z,45.80
2018-05-18T09:37:54.630Z,49.95
2018-05-18T09:40:22.197Z,43.63
2018-05-18T09:42:49.815Z,49.25
2018-05-18T09:45:18.230Z,45.65
2018-05-18T09:47:59.988Z,43.58
2018-05-18T09:50:29.732Z,44.03
2018-05-18T09:52:57.315Z,40.65
2018-05-18T09:55:24.965Z,40.15
2018-05-18T09:57:52.445Z,40.90
2018-05-18T10:00:19.989Z,38.25
2018-05-18T10:02:47.558Z,39.00
2018-05-18T10:05:15.218Z,51.72
2018-05-18T10:07:42.781Z,48.03
2018-05-18T10:10:15.368Z,48.83
2018-05-18T10:12:56.967Z,51.08
2018-05-18T10:15:24.536Z,46.53
2018-05-18T10:17:52.097Z,52.05
2018-05-18T10:20:19.659Z,36.65
2018-05-18T10:22:47.196Z,54.80
2018-05-18T10:25:14.810Z,31.70
2018-05-18T10:27:42.390Z,42.20
2018-05-18T10:30:13.183Z,41.22
2018-05-18T10:32:41.174Z,31.80
2018-05-18T10:35:08.746Z,33.22
2018-05-18T10:37:36.325Z,41.30
2018-05-18T10:40:03.912Z,36.03
2018-05-18T10:42:31.487Z,34.00
2018-05-18T10:44:59.041Z,40.50
2018-05-18T10:47:27.365Z,34.42
2018-05-18T10:49:54.931Z,34.97
2018-05-18T10:52:22.511Z,30.45
2018-05-18T10:54:50.087Z,31.58
2018-05-18T10:57:17.635Z,29.12
2018-05-18T10:59:45.200Z,33.47
2018-05-18T11:02:12.957Z,30.73
2018-05-18T11:04:40.522Z,27.60
2018-05-18T11:07:08.074Z,29.42
2018-05-18T11:09:35.648Z,26.37
2018-05-18T11:12:03.213Z,26.42
2018-05-18T11:14:30.759Z,28.45
2018-05-18T11:16:58.327Z,29.17
2018-05-18T11:19:25.870Z,28.42
2018-05-18T11:21:53.455Z,26.15
2018-05-18T11:24:20.997Z,36.33
2018-05-18T11:26:48.553Z,26.92
2018-05-18T11:29:16.974Z,28.87
2018-05-18T11:31:44.561Z,33.75
2018-05-18T11:34:12.158Z,35.78
2018-05-18T11:36:40.515Z,26.90
2018-05-18T11:39:08.232Z,29.55
2018-05-18T11:41:35.747Z,22.98
2018-05-18T11:44:03.344Z,32.78
2018-05-18T11:46:31.693Z,29.00
2018-05-18T11:48:59.242Z,32.22
2018-05-18T11:51:27.532Z,27.15
2018-05-18T11:53:55.093Z,29.10
2018-05-18T11:56:22.672Z,34.00
2018-05-18T11:58:50.283Z,30.90
2018-05-18T12:01:17.860Z,31.70
2018-05-18T12:03:45.429Z,31.98
2018-05-18T12:06:12.979Z,28.20
2018-05-18T12:08:40.563Z,31.77
2018-05-18T12:11:08.129Z,32.60
2018-05-18T12:13:35.666Z,22.90
2018-05-18T12:16:03.246Z,24.42
2018-05-18T12:18:30.818Z,26.10
2018-05-18T12:20:58.367Z,30.65
2018-05-18T12:23:25.955Z,28.75
2018-05-18T12:25:53.531Z,29.50
2018-05-18T12:28:21.153Z,26.05
2018-05-18T12:30:48.703Z,27.45
2018-05-18T12:33:17.040Z,28.12
2018-05-18T12:35:44.583Z,36.40
2018-05-18T12:38:12.197Z,29.23
2018-05-18T12:40:39.738Z,32.60
2018-05-18T12:43:07.310Z,32.30
2018-05-18T12:45:34.863Z,35.05
2018-05-18T12:48:02.412Z,24.45
2018-05-18T12:50:29.986Z,27.08
2018-05-18T12:52:58.127Z,24.40
2018-05-18T12:55:26.637Z,28.75
2018-05-18T12:57:54.211Z,34.22
2018-05-18T13:00:21.759Z,39.72
2018-05-18T13:02:49.312Z,29.27
2018-05-18T13:05:16.940Z,31.48
2018-05-18T13:07:44.514Z,31.48
2018-05-18T13:10:12.838Z,29.25
2018-05-18T13:12:40.407Z,33.22
2018-05-18T13:15:07.960Z,29.15
2018-05-18T13:17:35.535Z,25.27
2018-05-18T13:20:03.129Z,34.90
2018-05-18T13:22:30.678Z,30.77
2018-05-18T13:24:58.253Z,33.63
2018-05-18T13:27:25.831Z,31.40
2018-05-18T13:29:53.408Z,26.40
2018-05-18T13:32:21.737Z,23.75
2018-05-18T13:34:49.283Z,30.92
2018-05-18T13:37:16.837Z,29.17
2018-05-18T13:39:44.482Z,32.08
2018-05-18T13:42:12.087Z,30.67
2018-05-18T13:44:39.765Z,30.17
2018-05-18T13:47:08.037Z,32.28
2018-05-18T13:49:35.593Z,26.58
2018-05-18T13:52:03.126Z,25.95
2018-05-18T13:54:31.471Z,37.00
2018-05-18T13:56:59.028Z,31.67
2018-05-18T13:59:26.601Z,30.85
2018-05-18T14:01:54.141Z,28.55
2018-05-18T14:04:21.691Z,31.62
2018-05-18T14:06:49.422Z,31.83
2018-05-18T14:09:16.975Z,31.80
2018-05-18T14:11:44.564Z,29.92
2018-05-18T14:14:12.901Z,30.45
2018-05-18T14:16:40.474Z,35.55
2018-05-18T14:19:08.063Z,34.55
2018-05-18T14:21:35.615Z,29.83
2018-05-18T14:24:03.204Z,31.98
2018-05-18T14:26:31.650Z,30.60
2018-05-18T14:28:59.134Z,31.05
2018-05-18T14:31:26.677Z,30.05
2018-05-18T14:33:54.227Z,30.45
2018-05-18T14:36:21.835Z,31.48
2018-05-18T14:38:50.137Z,27.48
2018-05-18T14:41:17.677Z,26.73
2018-05-18T14:43:45.221Z,23.77
2018-05-18T14:46:12.767Z,26.02
2018-05-18T14:48:40.374Z,27.15
2018-05-18T14:51:08.695Z,27.70
2018-05-18T14:53:36.242Z,26.15
2018-05-18T14:56:03.808Z,31.33
2018-05-18T14:58:31.413Z,26.67
2018-05-18T15:00:58.962Z,31.50
2018-05-18T15:03:26.587Z,30.23
2018-05-18T15:05:54.903Z,31.27
2018-05-18T15:08:22.445Z,24.77
2018-05-18T15:10:50.882Z,25.62
2018-05-18T15:13:19.118Z,22.30
2018-05-18T15:15:46.707Z,26.30
2018-05-18T15:18:14.249Z,26.42
2018-05-18T15:20:41.818Z,25.17
2018-05-18T15:23:09.392Z,27.45
2018-05-18T15:25:36.933Z,21.20
2018-05-18T15:28:04.479Z,25.60
2018-05-18T15:30:32.835Z,23.50
2018-05-18T15:33:00.389Z,26.20
2018-05-18T15:35:27.959Z,23.27
2018-05-18T15:37:55.544Z,26.63
2018-05-18T15:40:44.312Z,26.77
2018-05-18T15:43:11.895Z,32.22
2018-05-18T15:45:39.489Z,36.97
2018-05-18T15:48:07.049Z,32.55
2018-05-18T15:50:34.601Z,28.40
2018-05-18T15:53:02.133Z,32.72
2018-05-18T15:55:33.110Z,32.22
2018-05-18T15:58:00.935Z,34.55
2018-05-18T16:00:29.280Z,33.60
2018-05-18T16:02:56.868Z,36.45
2018-05-18T16:05:24.629Z,41.80
2018-05-18T16:07:52.250Z,35.70
2018-05-18T16:10:20.211Z,38.47
2018-05-18T16:12:47.819Z,32.92
2018-05-18T16:15:15.365Z,38.80
2018-05-18T16:17:42.992Z,44.97
2018-05-18T16:20:11.550Z,34.60
2018-05-18T16:22:39.108Z,30.65
2018-05-18T16:25:06.670Z,30.62
2018-05-18T16:27:34.210Z,39.55
2018-05-18T16:30:01.787Z,31.17
2018-05-18T16:32:29.358Z,31.25
2018-05-18T16:34:56.897Z,33.08
2018-05-18T16:37:24.466Z,26.83
2018-05-18T16:39:52.039Z,29.35
2018-05-18T16:42:19.578Z,30.55
2018-05-18T16:44:47.136Z,25.67
2018-05-18T16:47:14.669Z,27.85
2018-05-18T16:49:43.002Z,27.92
2018-05-18T16:52:10.583Z,31.12
2018-05-18T16:54:38.857Z,29.83
2018-05-18T16:57:06.447Z,28.50
2018-05-18T16:59:34.168Z,29.12
2018-05-18T17:02:01.735Z,30.12
2018-05-18T17:04:29.277Z,32.33
2018-05-18T17:06:56.822Z,28.80
2018-05-18T17:09:25.126Z,27.17
2018-05-18T17:11:52.662Z,25.00
2018-05-18T17:14:20.244Z,32.85
2018-05-18T17:16:47.802Z,29.10
2018-05-18T17:19:16.126Z,31.55
2018-05-18T17:21:43.705Z,22.67
2018-05-18T17:24:11.274Z,35.25
2018-05-18T17:26:38.855Z,24.33
2018-05-18T17:29:06.447Z,30.08
2018-05-18T17:31:34.804Z,27.85
2018-05-18T17:34:02.353Z,30.73
2018-05-18T17:36:29.944Z,28.55
2018-05-18T17:38:58.263Z,24.65
2018-05-18T17:41:25.819Z,27.52
2018-05-18T17:43:53.391Z,28.17
2018-05-18T17:46:20.953Z,37.17
2018-05-18T17:48:48.546Z,28.23
2018-05-18T17:51:16.126Z,25.35
2018-05-18T17:53:43.694Z,29.95
2018-05-18T17:56:11.288Z,28.08
2018-05-18T17:58:39.612Z,26.87
2018-05-18T18:01:07.187Z,22.65
2018-05-18T18:03:34.751Z,27.58
2018-05-18T18:06:02.347Z,23.50
2018-05-18T18:08:30.687Z,24.90
2018-05-18T18:10:58.241Z,26.45
2018-05-18T18:13:25.805Z,31.67
2018-05-18T18:15:53.399Z,23.80
2018-05-18T18:18:20.991Z,24.80
2018-05-18T18:20:49.334Z,22.70
2018-05-18T18:23:16.891Z,26.30
2018-05-18T18:25:44.459Z,21.20
2018-05-18T18:28:12.047Z,23.98
2018-05-18T18:30:39.596Z,23.77
2018-05-18T18:33:07.175Z,21.67
2018-05-18T18:35:34.735Z,30.37
2018-05-18T18:38:02.314Z,23.33
2018-05-18T18:40:29.930Z,20.65
2018-05-18T18:42:57.479Z,21.85
2018-05-18T18:45:25.085Z,19.65
2018-05-18T18:47:52.640Z,22.73
2018-05-18T18:50:20.233Z,27.50
2018-05-18T18:52:48.602Z,20.15
2018-05-18T18:55:16.159Z,20.27
2018-05-18T18:57:43.699Z,22.10
2018-05-18T19:00:11.292Z,20.95
2018-05-18T19:02:38.883Z,20.77
2018-05-18T19:05:07.235Z,24.67
2018-05-18T19:07:34.787Z,24.50
2018-05-18T19:10:02.350Z,28.87
2018-05-18T19:12:29.978Z,20.42
2018-05-18T19:14:57.554Z,27.33
2018-05-18T19:17:25.131Z,21.90
2018-05-18T19:19:52.693Z,22.83
2018-05-18T19:22:20.402Z,20.30
2018-05-18T19:24:47.967Z,19.02
2018-05-18T19:27:15.541Z,22.10
2018-05-18T19:29:43.194Z,25.08
2018-05-18T19:32:10.723Z,24.10
2018-05-18T19:34:38.272Z,30.90
2018-05-18T19:37:05.822Z,29.50
2018-05-18T19:39:34.163Z,23.02
2018-05-18T19:42:01.739Z,32.17
2018-05-18T19:44:29.299Z,34.10
2018-05-18T19:46:56.874Z,25.80
2018-05-18T19:49:24.422Z,25.05
2018-05-18T19:51:51.993Z,23.95
2018-05-18T19:54:19.576Z,32.67
2018-05-18T19:56:47.929Z,22.33
2018-05-18T19:59:15.538Z,27.85
2018-05-18T20:01:43.859Z,32.22
2018-05-18T20:04:11.407Z,27.10
2018-05-18T20:06:38.953Z,37.60
2018-05-18T20:09:06.506Z,30.23
2018-05-18T20:11:34.894Z,25.20
2018-05-18T20:14:03.235Z,34.47
2018-05-18T20:16:30.786Z,28.52
2018-05-18T20:18:58.339Z,29.40
2018-05-18T20:21:25.906Z,36.95
2018-05-18T20:23:53.468Z,32.47
2018-05-18T20:26:21.024Z,29.87
2018-05-18T20:28:48.588Z,29.55
2018-05-18T20:31:16.174Z,31.80
2018-05-18T20:33:43.736Z,29.45
2018-05-18T20:36:11.311Z,38.80
2018-05-18T20:38:38.886Z,32.95
2018-05-18T20:41:07.249Z,34.65
2018-05-18T20:43:34.809Z,30.77
2018-05-18T20:46:02.380Z,35.15
2018-05-18T20:48:29.940Z,31.25
2018-05-18T20:50:57.552Z,27.35
2018-05-18T20:53:26.089Z,27.60
2018-05-18T20:55:53.674Z,39.05
2018-05-18T20:58:21.233Z,34.50
2018-05-18T21:00:48.848Z,30.17
2018-05-18T21:03:16.428Z,30.27
2018-05-18T21:05:44.037Z,40.85
2018-05-18T21:08:11.943Z,35.25
2018-05-18T21:10:40.384Z,33.58
2018-05-18T21:13:08.624Z,41.05
2018-05-18T21:15:36.211Z,28.33
2018-05-18T21:18:03.787Z,36.58
2018-05-18T21:20:31.375Z,31.33
2018-05-18T21:22:58.919Z,40.20
2018-05-18T21:25:26.493Z,41.97
2018-05-18T21:27:54.045Z,34.55
2018-05-18T21:30:21.609Z,32.33
2018-05-18T21:32:49.160Z,31.55
2018-05-18T21:35:16.709Z,30.05
2018-05-18T21:37:44.260Z,29.23
2018-05-18T21:40:11.797Z,31.48
2018-05-18T21:42:39.402Z,34.17
2018-05-18T21:45:06.959Z,33.65
2018-05-18T21:47:34.526Z,35.25
2018-05-18T21:50:02.116Z,31.48
2018-05-18T21:52:29.679Z,36.47
2018-05-18T21:54:57.241Z,36.42
2018-05-18T21:57:24.811Z,30.37
2018-05-18T21:59:52.365Z,32.72
2018-05-18T22:02:19.938Z,28.80
2018-05-18T22:04:47.516Z,30.65
2018-05-18T22:07:15.071Z,33.55
2018-05-18T22:09:42.624Z,32.08
2018-05-18T22:12:10.180Z,32.88
2018-05-18T22:14:37.791Z,36.95
2018-05-18T22:17:05.346Z,30.50
2018-05-18T22:19:32.906Z,25.60
2018-05-18T22:22:00.454Z,37.63
2018-05-18T22:24:28.026Z,26.70
2018-05-18T22:26:55.587Z,31.60
2018-05-18T22:29:23.141Z,39.25
2018-05-18T22:31:50.720Z,25.23
2018-05-18T22:34:18.270Z,29.90
2018-05-18T22:36:45.801Z,27.20
2018-05-18T22:39:13.345Z,30.15
2018-05-18T22:41:41.678Z,34.40
2018-05-18T22:44:09.217Z,26.12
2018-05-18T22:46:36.762Z,37.33
2018-05-18T22:49:05.109Z,32.08
2018-05-18T22:51:32.862Z,24.37
2018-05-18T22:54:00.403Z,30.90
2018-05-18T22:56:27.937Z,34.08
2018-05-18T22:58:56.244Z,32.65
2018-05-18T23:01:23.812Z,32.33
2018-05-18T23:03:51.378Z,38.42
2018-05-18T23:06:18.918Z,34.15
2018-05-18T23:08:47.270Z,33.72
2018-05-18T23:11:14.846Z,31.20
2018-05-18T23:13:43.173Z,45.17
2018-05-18T23:16:10.719Z,41.20
2018-05-18T23:18:38.275Z,30.73
2018-05-18T23:21:06.612Z,27.10
2018-05-18T23:23:34.158Z,34.72
2018-05-18T23:26:01.705Z,29.25
2018-05-18T23:28:29.283Z,35.83
2018-05-18T23:30:56.831Z,44.25
2018-05-18T23:33:24.406Z,39.75
2018-05-18T23:35:52.045Z,38.88
2018-05-18T23:38:19.590Z,41.35
2018-05-18T23:40:47.936Z,38.33
2018-05-18T23:43:15.487Z,41.80
2018-05-18T23:45:43.045Z,42.53
2018-05-18T23:48:10.597Z,36.83
2018-05-18T23:50:38.153Z,34.95
2018-05-18T23:53:05.703Z,37.38
2018-05-18T23:55:34.043Z,39.22
2018-05-18T23:58:01.581Z,38.15
